East Vail, Colorado
Current Conditions -  °F | °C
As of 7:37 AM on Saturday 25 Oct 2014 (Local Time) from KCCU Reporting Station
Clear Clear  
Wind Chill: 43°   Ceiling: Unl
Heat Index: 43°   Visibility: 10mi
Dew Point:   Wind: 0mph
Humidity: 16%   Direction: NA
Pressure: 30.63"   Gusts: NA
Location:  39.5908°N, 106.4°W
Report Text: KCCU 251337Z AUTO 00000KT 10SM CLR 06/M18 A3063 RMK AO2
Loading
Personal Weather Stations






























Interactive Weather Map New forecast layout! Learn more

10-Day Weather Forecast

Advertisements
Track Severe Weather on mobile